Liberal, KS

2:47 AM CST on December 05, 2016 (GMT -0600)
Bozarth Farm 3.5E Liberal | | Change Station

Elev 2785 ft 37.02 °N, 100.86 °W | Updated 14 minutes ago

Clear
Clear
30.9 °F
Feels Like 21 °F
N
12.0
Wind Variable Wind from WSW
Gusts 14.0 mph

Today
High -- | Low -- °F
--% Chance of Precip.
Yesterday
High -- | Low -- °F
Precip. -- in
Pressure 29.85 in
Visibility 10.0 miles
Clouds Clear
Windchill 21 °F
Dew Point 25 °F
Humidity 78%
Rainfall 0.00 in
Snow Depth Not available.
7:42 AM 5:26 PM
Waxing Crescent, 30% visible
METAR KLBL 050835Z 18013KT 10SM CLR M01/M06 A2985 RMK AO1
Pressure 29.85 in
Visibility 10.0 miles
Clouds Clear
Windchill 21 °F
Dew Point 25 °F
Humidity 78%
Rainfall 0.00 in
Snow Depth Not available.
7:42 AM 5:26 PM
Waxing Crescent, 30% visible
METAR KLBL 050835Z 18013KT 10SM CLR M01/M06 A2985 RMK AO1

10-Day Weather Forecast

Almanac

Astronomy

Dec. 05, 2016 Rise Set
Actual Time
Civil Twilight
Nautical Twilight
Astronomical Twilight
Moon
Length of Visible Light
Length of Day
Tomorrow will be .
, % of the Moon is Illuminated

Today's Extremes

State Highs State Lows

Community

WunderPhotos

Upload Photos

1,955,771 photos uploaded!

WunderBlog® & News

Nearby

Air Quality

  Air Quality AQ Index Pollutant
Not available.

Snow Depth

Station Depth Elevation

Earthquake Activity

City Distance Mag. Time & Date
Minimum magnitude displayed is 2.5.

Coastal Water Temperatures

Place Temperature

Stations

Nearby Weather Stations

Station Location Temp. Windchill Dew Point Humidity Wind Precip. Elev Updated Type
                   

Watches & Warnings

There are currently no watches in effect.